Terminal Aerodrome Forecast
Issued by NWS Wilmington, OH

Current Version | Previous Version | Graphics & Text | Print | Product List | Glossary On
Versions: 1 2 3 4 5 6 7 8 9 10 11 12 13 14 15 16 17 18 19 20
000
FTUS41 KILN 221143
TAFCMH
TAF
KCMH 221143Z 2212/2312 19005KT 3SM -SHRA VCTS BKN035CB OVC070
     FM221300 19006KT P6SM -SHRA SCT035 OVC070
     FM221500 19007KT 5SM -SHRA VCTS SCT025CB BKN035
     FM221800 21010G18KT P6SM BKN040
     FM222300 24009KT 5SM -SHRA VCTS OVC040CB
      TEMPO 2300/2304 2SM -TSRA BKN025CB
     FM230600 23006KT P6SM VCSH BKN050=

USA.gov is the U.S. government's official web portal to all federal, state and local government web resources and services.